KLKV

Lake County Airport

Lakeview, Oregon, USA
METAR KLKV 230956Z AUTO 35011KT 9SM -SN FEW013 OVC020 M11/M13 A3013 RMK AO2 SLP262 T11061133 FZRANO PNO $
Observed Flight Rules
Feb-23 @ 09:56 UTC (31 minutes ago) Marginal Visual Flight Rules
Wind Visibility Clouds Conditions
350° at 11 knots 9 miles
  • Few at 1,300' AGL
  • Overcast at 2,000' AGL
  • Light Snow
Temperatures Readings
Current -11°C / 12°F
Dewpoint -13°C / 9°F
Humidity 85%
Altimeter 30.13" Hg
Pressure 1026.2 hPa
Elevation 1441
METAR KLKV 230956Z AUTO 35011KT 9SM -SN FEW013 OVC020 M11/M13 A3013 RMK AO2 SLP262 T11061133 FZRANO PNO $
Observed Flight Rules
Feb-23 @ 09:56 UTC
(31 minutes ago)
MVFR
Wind Visibility
350° at 11 knots 9 miles
Clouds
  • Few at 1,300' AGL
  • Overcast at 2,000' AGL
Conditions
  • Light Snow
Temperature Dewpoint
-11°C / 12°F -13°C / 9°F
Humidity Altimeter Pressure
85% 30.13" Hg 1026.2 hPa